Time;durP1;ratioP1;P1;durP2;ratioP2;P2;SDS_P1;SDS_P2;PMS_P1;PMS_P2;Temp;Humidity;BMP_temperature;BMP_pressure;BME280_temperature;BME280_humidity;BME280_pressure;Samples;Min_cycle;Max_cycle;Signal;HPM_P1;HPM_P2
2021/07/14 00:00:30;;;;;;;14.85;13.45;;;;;;;23.33;51.22;93755.22;6173490;23;20025;-90
2021/07/14 00:05:58;;;;;;;13.85;11.82;;;;;;;23.31;51.50;93758.28;6173657;23;20013;-88
2021/07/14 00:08:24;;;;;;;13.20;11.90;;;;;;;23.13;51.66;93735.75;6144100;23;20016;-89
2021/07/14 00:10:54;;;;;;;18.08;12.90;;;;;;;22.71;51.88;93687.53;6167190;23;20012;-89
2021/07/14 00:13:36;;;;;;;14.88;12.57;;;;;;;22.68;51.84;93680.16;6174396;23;20013;-88
2021/07/14 00:24:23;;;;;;;14.25;12.90;;;;;;;22.85;51.50;93713.88;6176451;23;20032;-89
2021/07/14 00:26:49;;;;;;;15.02;13.18;;;;;;;22.93;52.28;93734.34;6146488;23;20010;-89
2021/07/14 00:29:15;;;;;;;15.07;13.30;;;;;;;22.65;52.20;93713.22;6145895;23;20775;-89
2021/07/14 00:31:41;;;;;;;14.45;13.05;;;;;;;22.87;52.72;93744.69;6174361;23;20035;-89
2021/07/14 00:34:07;;;;;;;14.63;13.18;;;;;;;23.07;52.06;93744.53;6175601;23;20471;-89
2021/07/14 00:36:32;;;;;;;14.85;13.43;;;;;;;23.11;52.45;93745.34;6174166;23;20017;-86
2021/07/14 00:38:58;;;;;;;15.38;13.23;;;;;;;22.98;52.25;93746.72;6172840;23;20009;-89
2021/07/14 00:41:24;;;;;;;14.93;13.52;;;;;;;22.46;53.01;93708.75;6179515;23;20026;-88
2021/07/14 00:43:49;;;;;;;13.57;12.18;;;;;;;22.78;52.77;93752.28;6182251;23;20109;-90
2021/07/14 00:46:21;;;;;;;14.15;12.85;;;;;;;22.76;52.97;93754.56;6170716;23;20021;-89
2021/07/14 00:48:51;;;;;;;14.23;12.70;;;;;;;22.41;52.88;93709.06;6173119;23;20295;-89
2021/07/14 00:51:20;;;;;;;15.15;13.65;;;;;;;22.55;53.50;93727.31;6168214;23;20379;-89
2021/07/14 00:53:46;;;;;;;14.73;12.32;;;;;;;22.31;53.80;93692.75;6174314;23;20013;-90
2021/07/14 00:56:12;;;;;;;15.02;13.52;;;;;;;22.72;52.98;93753.75;6181511;23;20675;-89
2021/07/14 00:58:38;;;;;;;13.73;12.38;;;;;;;22.39;53.32;93702.47;6170566;23;20005;-88
2021/07/14 01:01:04;;;;;;;15.55;14.02;;;;;;;22.42;53.23;93707.16;6172919;23;20533;-89
2021/07/14 01:03:44;;;;;;;14.70;13.27;;;;;;;22.33;53.97;93712.03;6174953;23;20033;-89
2021/07/14 01:06:19;;;;;;;17.58;13.88;;;;;;;22.19;54.70;93709.13;6171320;23;20074;-89
2021/07/14 01:08:54;;;;;;;15.23;13.73;;;;;;;22.06;54.97;93702.41;6171597;23;20468;-88
2021/07/14 01:11:22;;;;;;;17.33;13.63;;;;;;;22.18;54.59;93734.50;6149719;23;20126;-89
2021/07/14 01:13:56;;;;;;;13.93;12.55;;;;;;;22.24;54.52;93749.19;6172754;23;20076;-89
2021/07/14 01:16:27;;;;;;;14.63;13.05;;;;;;;22.03;53.60;93702.00;6176452;23;20075;-88
2021/07/14 01:18:58;;;;;;;18.67;14.05;;;;;;;22.40;53.67;93764.03;6175400;23;20041;-89
2021/07/14 01:21:39;;;;;;;15.60;12.43;;;;;;;22.13;53.47;93694.44;6172638;23;20601;-90
2021/07/14 01:24:32;;;;;;;15.60;12.88;;;;;;;22.42;54.11;93769.06;6177958;23;20127;-89
2021/07/14 01:27:11;;;;;;;13.93;12.60;;;;;;;22.02;54.50;93711.19;6171997;23;20440;-90
2021/07/14 01:29:58;;;;;;;15.70;13.45;;;;;;;22.36;53.89;93735.53;6146908;23;20467;-89
2021/07/14 01:32:28;;;;;;;15.70;13.30;;;;;;;22.48;53.92;93758.78;6176017;23;20021;-89
2021/07/14 01:35:01;;;;;;;14.30;12.60;;;;;;;22.26;53.75;93715.38;6174210;23;20025;-89
2021/07/14 01:37:31;;;;;;;14.77;13.20;;;;;;;22.60;53.11;93763.94;6150394;23;20017;-89
2021/07/14 01:39:59;;;;;;;19.02;12.93;;;;;;;22.56;53.62;93758.50;6173219;23;20460;-89
2021/07/14 01:42:29;;;;;;;15.77;13.32;;;;;;;22.37;53.65;93737.09;6176875;23;20013;-90
2021/07/14 01:44:57;;;;;;;17.92;13.13;;;;;;;22.25;54.43;93740.75;6167660;23;20555;-90
2021/07/14 01:47:27;;;;;;;14.30;12.90;;;;;;;22.03;54.75;93723.53;6150451;23;20025;-86
2021/07/14 01:49:57;;;;;;;14.23;12.93;;;;;;;22.33;53.75;93752.41;6139984;23;20411;-88
2021/07/14 01:52:30;;;;;;;14.45;13.02;;;;;;;22.12;54.61;93722.47;6158185;23;20331;-89
2021/07/14 01:55:01;;;;;;;14.13;12.73;;;;;;;21.99;54.34;93717.28;6172694;23;20215;-90
2021/07/14 01:57:32;;;;;;;15.75;14.15;;;;;;;22.16;54.11;93724.09;6131273;23;20016;-89
2021/07/14 01:59:58;;;;;;;14.23;12.75;;;;;;;22.26;54.31;93752.28;6149476;23;20131;-90
2021/07/14 02:02:27;;;;;;;13.77;12.25;;;;;;;22.14;54.02;93733.66;6154356;23;20013;-90
2021/07/14 02:05:05;;;;;;;15.30;12.98;;;;;;;21.85;54.80;93706.28;6141289;23;20036;-89
2021/07/14 02:07:41;;;;;;;16.38;12.82;;;;;;;21.87;54.88;93701.34;6170214;23;20083;-88
2021/07/14 02:10:07;;;;;;;14.05;12.60;;;;;;;22.09;55.12;93745.50;6147866;23;20025;-89
2021/07/14 02:12:38;;;;;;;13.85;12.07;;;;;;;21.98;54.42;93728.44;6176822;23;20090;-88
2021/07/14 02:15:12;;;;;;;14.40;13.07;;;;;;;22.09;55.38;93774.34;6166438;23;20025;-89
2021/07/14 02:17:55;;;;;;;13.57;12.35;;;;;;;22.01;54.80;93752.69;6171423;23;20207;-88
2021/07/14 02:20:22;;;;;;;14.02;12.68;;;;;;;22.02;54.16;93740.81;6145022;23;20066;-90
2021/07/14 02:22:49;;;;;;;14.40;12.95;;;;;;;21.78;54.79;93722.31;6173996;23;20016;-89
2021/07/14 02:25:15;;;;;;;14.68;13.18;;;;;;;22.06;55.41;93775.84;6172703;23;20456;-89
2021/07/14 02:27:49;;;;;;;14.80;13.32;;;;;;;21.72;55.97;93747.97;6173451;23;20086;-89
2021/07/14 02:30:25;;;;;;;15.95;13.68;;;;;;;21.76;55.70;93748.81;6145883;23;20020;-88
2021/07/14 02:32:56;;;;;;;15.55;14.15;;;;;;;21.78;56.47;93778.03;6169591;23;20044;-89
2021/07/14 02:35:23;;;;;;;18.35;14.18;;;;;;;21.73;56.71;93776.44;6173995;23;20107;-89
2021/07/14 02:38:10;;;;;;;15.27;13.88;;;;;;;21.87;56.40;93790.09;6174953;23;20028;-89
2021/07/14 02:40:49;;;;;;;15.50;13.93;;;;;;;21.68;57.01;93792.84;6183841;23;20011;-89
2021/07/14 02:43:16;;;;;;;16.35;14.65;;;;;;;21.53;56.74;93769.53;6175877;23;20048;-90
2021/07/14 02:45:47;;;;;;;17.08;15.43;;;;;;;21.23;57.71;93734.44;6172872;23;20386;-90
2021/07/14 02:48:18;;;;;;;16.17;14.40;;;;;;;21.38;58.34;93783.84;6144710;23;20028;-89
2021/07/14 02:50:57;;;;;;;16.20;14.43;;;;;;;21.66;57.02;93795.13;6117000;23;20516;-89
2021/07/14 02:53:32;;;;;;;16.92;15.15;;;;;;;21.73;57.21;93800.63;6143590;23;20021;-88
2021/07/14 02:56:03;;;;;;;15.32;13.85;;;;;;;21.57;57.62;93794.56;6144692;23;20009;-88
2021/07/14 02:58:32;;;;;;;17.33;15.40;;;;;;;21.27;57.89;93764.84;6154824;23;20001;-89
2021/07/14 03:00:59;;;;;;;17.17;15.35;;;;;;;21.42;58.56;93819.63;6116349;23;20014;-89
2021/07/14 03:03:28;;;;;;;16.58;13.95;;;;;;;21.06;58.34;93759.81;6145595;23;20028;-89
2021/07/14 03:05:56;;;;;;;21.27;14.07;;;;;;;21.04;58.10;93756.72;6115442;23;20021;-89
2021/07/14 03:08:30;;;;;;;16.33;13.50;;;;;;;21.22;58.62;93785.84;6144000;23;20025;-89
2021/07/14 03:10:58;;;;;;;16.95;14.60;;;;;;;20.98;59.29;93771.53;6116037;23;20445;-89
2021/07/14 03:13:29;;;;;;;17.27;15.00;;;;;;;21.48;58.88;93832.44;6144302;23;20008;-89
2021/07/14 03:15:56;;;;;;;15.43;14.00;;;;;;;21.26;58.95;93784.03;6117569;23;20029;-89
2021/07/14 03:18:23;;;;;;;18.20;14.07;;;;;;;21.56;58.30;93801.06;6145350;23;20445;-88
2021/07/14 03:20:53;;;;;;;15.27;13.77;;;;;;;21.43;58.41;93784.34;6142164;23;20016;-88
2021/07/14 03:23:19;;;;;;;16.00;14.32;;;;;;;21.61;58.22;93812.31;6146673;23;20018;-89
2021/07/14 03:25:49;;;;;;;16.65;13.80;;;;;;;21.46;58.82;93790.91;6143861;23;20012;-89
2021/07/14 03:28:14;;;;;;;16.38;14.77;;;;;;;21.91;56.79;93817.84;6155822;23;20076;-86
2021/07/14 03:30:40;;;;;;;15.40;13.77;;;;;;;21.84;56.15;93774.69;6143819;23;20025;-87
2021/07/14 03:33:10;;;;;;;15.18;13.65;;;;;;;22.24;55.28;93786.88;6118336;23;20096;-89
2021/07/14 03:35:37;;;;;;;14.82;13.43;;;;;;;22.34;54.88;93759.31;6113329;23;20461;-89
2021/07/14 03:38:06;;;;;;;17.35;13.82;;;;;;;22.54;54.77;93760.78;6149589;23;20010;-89
2021/07/14 03:40:40;;;;;;;14.77;13.27;;;;;;;23.17;53.55;93811.25;6144816;23;19998;-89
2021/07/14 03:43:10;;;;;;;16.38;14.68;;;;;;;23.40;52.93;93790.38;6103399;23;20021;-89
2021/07/14 03:45:44;;;;;;;14.27;12.88;;;;;;;23.96;51.77;93814.44;6142402;23;20464;-89
2021/07/14 03:48:17;;;;;;;18.85;13.85;;;;;;;23.99;50.68;93765.13;6174328;23;20032;-89
2021/07/14 03:50:47;;;;;;;16.00;12.45;;;;;;;24.37;49.83;93768.53;6173067;23;20104;-89
2021/07/14 03:53:23;;;;;;;16.83;12.70;;;;;;;24.95;49.14;93806.34;6142034;23;20080;-89
2021/07/14 03:55:50;;;;;;;13.18;11.88;;;;;;;25.15;48.58;93779.78;6172708;23;20500;-89
2021/07/14 03:58:18;;;;;;;13.80;12.10;;;;;;;25.77;47.72;93815.56;6168947;23;20004;-89
2021/07/14 04:00:49;;;;;;;16.95;13.18;;;;;;;26.22;47.04;93825.72;6172997;23;20017;-89
2021/07/14 04:03:21;;;;;;;13.25;12.05;;;;;;;26.15;46.73;93771.50;6152135;23;20024;-89
2021/07/14 04:05:49;;;;;;;13.10;11.88;;;;;;;26.88;45.58;93817.19;6170998;23;20021;-89
2021/07/14 04:08:28;;;;;;;15.75;11.77;;;;;;;27.31;44.57;93812.41;6139244;23;20020;-89
2021/07/14 04:10:57;;;;;;;16.63;11.73;;;;;;;27.72;42.88;93821.53;6168569;23;20016;-89
2021/07/14 04:13:23;;;;;;;17.30;12.63;;;;;;;27.85;42.96;93808.28;6181109;23;20083;-89
2021/07/14 04:15:48;;;;;;;13.63;12.23;;;;;;;28.15;42.10;93777.84;6171722;23;20094;-89
2021/07/14 04:18:14;;;;;;;12.90;11.43;;;;;;;28.75;41.47;93809.97;6146393;23;20023;-89
2021/07/14 04:20:43;;;;;;;12.40;10.93;;;;;;;29.06;40.20;93819.00;6165176;23;20096;-89
2021/07/14 04:23:09;;;;;;;17.60;12.45;;;;;;;29.15;39.80;93801.00;6172998;23;20064;-88
2021/07/14 04:25:45;;;;;;;12.40;11.15;;;;;;;29.58;39.47;93801.28;6172821;23;20625;-89
2021/07/14 04:28:10;;;;;;;23.70;12.68;;;;;;;29.69;37.84;93801.94;6142507;23;20021;-89
2021/07/14 04:30:48;;;;;;;18.58;12.70;;;;;;;30.00;37.98;93793.75;6170122;23;20104;-88
2021/07/14 04:33:14;;;;;;;18.08;12.85;;;;;;;30.31;37.40;93816.25;6143348;23;20355;-88
2021/07/14 04:35:40;;;;;;;20.20;12.90;;;;;;;30.06;37.16;93803.78;6168682;23;20040;-89
2021/07/14 04:38:07;;;;;;;12.95;11.73;;;;;;;30.17;36.28;93808.28;6174619;23;20017;-89
2021/07/14 04:40:50;;;;;;;15.32;13.80;;;;;;;30.31;36.18;93792.50;6169448;23;20005;-89
2021/07/14 04:43:29;;;;;;;19.85;14.00;;;;;;;30.80;35.60;93836.53;6132799;23;20482;-88
2021/07/14 04:46:03;;;;;;;16.63;12.88;;;;;;;31.16;35.75;93807.44;6168062;23;20174;-89
2021/07/14 04:48:29;;;;;;;16.20;12.20;;;;;;;31.85;34.20;93840.44;6162623;23;20025;-89
2021/07/14 04:50:57;;;;;;;13.40;12.30;;;;;;;31.73;34.29;93822.72;6146986;23;20013;-89
2021/07/14 04:53:25;;;;;;;15.10;12.25;;;;;;;32.27;33.92;93850.47;6130771;23;20020;-89
2021/07/14 04:55:53;;;;;;;14.77;13.35;;;;;;;32.69;33.07;93848.75;6160778;23;20092;-89
2021/07/14 04:58:27;;;;;;;18.30;14.38;;;;;;;33.03;32.23;93834.59;6151859;23;20015;-88
2021/07/14 05:00:55;;;;;;;13.60;12.30;;;;;;;33.37;31.52;93843.09;6165038;23;20880;-90
2021/07/14 05:03:23;;;;;;;16.02;11.65;;;;;;;33.77;31.50;93842.81;6163447;23;20417;-90
2021/07/14 05:05:52;;;;;;;15.63;12.75;;;;;;;34.03;31.11;93824.41;6137288;23;20021;-90
2021/07/14 05:08:17;;;;;;;15.07;11.98;;;;;;;33.93;30.93;93829.78;6165099;23;20745;-89
2021/07/14 05:10:43;;;;;;;12.90;11.35;;;;;;;34.42;30.11;93843.22;6140317;23;20006;-90
2021/07/14 05:13:09;;;;;;;14.60;11.38;;;;;;;35.10;29.57;93881.03;6139538;23;20789;-89
2021/07/14 05:15:34;;;;;;;18.55;12.55;;;;;;;34.71;29.13;93860.34;6140939;23;20093;-91
2021/07/14 05:18:00;;;;;;;17.20;12.32;;;;;;;33.99;29.87;93843.72;6164168;23;20064;-90
2021/07/14 05:20:26;;;;;;;18.95;11.88;;;;;;;34.90;30.48;93879.75;6127261;23;20075;-90
2021/07/14 05:22:51;;;;;;;14.00;12.68;;;;;;;35.22;29.35;93849.28;6149386;23;20012;-89
2021/07/14 05:25:27;;;;;;;17.10;12.43;;;;;;;35.00;28.77;93819.00;6141639;23;20092;-90
2021/07/14 05:27:55;;;;;;;16.08;12.23;;;;;;;34.51;29.46;93818.63;6142123;23;20128;-89
2021/07/14 05:30:26;;;;;;;14.05;12.57;;;;;;;34.41;29.72;93830.72;6134828;23;20499;-90
2021/07/14 05:32:55;;;;;;;18.35;12.52;;;;;;;34.61;30.18;93850.47;6141936;23;20025;-89
2021/07/14 05:35:21;;;;;;;12.55;11.45;;;;;;;34.76;29.99;93837.84;6136713;23;20033;-90
2021/07/14 05:37:50;;;;;;;17.73;11.70;;;;;;;34.90;29.87;93871.53;6147120;23;20009;-86
2021/07/14 05:40:16;;;;;;;16.70;11.63;;;;;;;34.70;30.00;93822.34;6164028;23;20011;-88
2021/07/14 05:42:43;;;;;;;13.57;12.18;;;;;;;34.61;29.97;93833.22;6141754;23;20112;-83
2021/07/14 05:45:15;;;;;;;16.88;12.73;;;;;;;34.18;30.79;93829.06;6143136;23;20041;-85
2021/07/14 05:47:45;;;;;;;16.13;10.43;;;;;;;35.07;30.61;93870.19;6167645;23;20036;-85
2021/07/14 05:50:11;;;;;;;13.93;11.30;;;;;;;35.48;30.01;93855.47;6171720;23;20013;-86
2021/07/14 05:52:39;;;;;;;16.15;11.60;;;;;;;35.75;29.62;93874.94;6172665;23;20005;-85
2021/07/14 05:55:08;;;;;;;17.58;9.95;;;;;;;35.87;29.32;93876.09;6169659;23;20464;-85
2021/07/14 05:57:34;;;;;;;15.23;11.13;;;;;;;35.82;29.63;93876.66;6173530;23;20024;-86
2021/07/14 05:59:59;;;;;;;17.92;11.07;;;;;;;35.98;29.46;93873.69;6170996;23;20025;-85
2021/07/14 06:02:24;;;;;;;29.67;12.95;;;;;;;36.44;29.02;93875.53;6172757;23;20015;-86
2021/07/14 06:04:50;;;;;;;12.63;11.30;;;;;;;36.55;28.25;93868.84;6172444;23;20538;-86
2021/07/14 06:07:15;;;;;;;15.85;11.88;;;;;;;37.00;27.94;93881.97;6185110;23;20232;-86
2021/07/14 06:09:40;;;;;;;11.93;9.93;;;;;;;36.88;28.04;93880.91;6175697;23;20032;-86
2021/07/14 06:12:07;;;;;;;12.63;11.20;;;;;;;37.10;28.06;93881.56;6179915;23;20478;-85
2021/07/14 06:14:32;;;;;;;12.50;10.70;;;;;;;37.22;28.31;93879.94;6171984;23;20009;-83
2021/07/14 06:16:58;;;;;;;11.70;10.63;;;;;;;36.46;28.92;93877.78;6184271;23;20011;-85
2021/07/14 06:19:25;;;;;;;12.13;10.90;;;;;;;36.65;28.40;93884.19;6183069;23;20028;-85
2021/07/14 06:21:51;;;;;;;14.00;12.00;;;;;;;36.50;29.19;93888.69;6174253;23;20017;-85
2021/07/14 06:24:16;;;;;;;12.07;10.85;;;;;;;36.67;28.24;93876.22;6175173;23;20099;-86
2021/07/14 06:26:41;;;;;;;15.48;11.23;;;;;;;37.27;28.38;93890.34;6174255;23;20081;-86
2021/07/14 06:29:08;;;;;;;17.02;11.40;;;;;;;37.02;28.13;93891.34;6148316;23;20518;-86
2021/07/14 06:31:34;;;;;;;11.73;10.57;;;;;;;37.11;27.98;93874.09;6172413;23;20424;-86
2021/07/14 06:33:59;;;;;;;14.10;11.10;;;;;;;37.09;27.93;93873.78;6176550;23;20088;-87
2021/07/14 06:36:25;;;;;;;16.08;10.95;;;;;;;37.33;28.02;93887.75;6170649;23;20044;-86
2021/07/14 06:38:50;;;;;;;12.60;11.30;;;;;;;37.46;27.62;93888.38;6180430;23;20017;-87
2021/07/14 06:41:18;;;;;;;16.15;10.63;;;;;;;37.59;27.58;93894.53;6182642;23;20013;-84
2021/07/14 06:43:46;;;;;;;12.65;11.25;;;;;;;37.71;27.38;93880.59;6185732;23;20005;-86
2021/07/14 06:46:16;;;;;;;20.85;11.90;;;;;;;37.42;27.65;93877.50;6146908;23;20028;-86
2021/07/14 06:48:42;;;;;;;16.52;11.35;;;;;;;37.51;27.73;93898.78;6176034;23;20088;-85
2021/07/14 06:51:08;;;;;;;15.88;12.65;;;;;;;37.48;27.53;93892.22;6172669;23;20057;-85
2021/07/14 06:53:34;;;;;;;14.18;11.80;;;;;;;37.48;27.51;93888.69;6174055;23;20785;-86
2021/07/14 06:56:00;;;;;;;16.10;12.02;;;;;;;37.89;27.33;93893.59;6175701;23;20088;-86
2021/07/14 06:58:28;;;;;;;17.17;12.20;;;;;;;38.23;26.27;93875.94;6172726;23;20005;-85
2021/07/14 07:00:54;;;;;;;13.00;11.68;;;;;;;37.98;27.10;93884.53;6175693;23;20032;-85
2021/07/14 07:03:20;;;;;;;16.67;12.10;;;;;;;38.30;26.48;93875.63;6177501;23;20320;-84
2021/07/14 07:05:46;;;;;;;14.40;11.18;;;;;;;38.46;26.39;93877.28;6173271;23;20121;-85
2021/07/14 07:08:12;;;;;;;13.95;11.77;;;;;;;38.78;26.63;93876.53;6181147;23;20013;-85
2021/07/14 07:10:39;;;;;;;21.42;11.05;;;;;;;39.63;25.02;93877.88;6172077;23;20012;-87
2021/07/14 07:13:07;;;;;;;12.18;10.98;;;;;;;39.16;25.17;93881.41;6170871;23;20017;-85
2021/07/14 07:15:33;;;;;;;13.93;11.65;;;;;;;39.46;25.16;93868.47;6174014;23;20091;-83
2021/07/14 07:17:58;;;;;;;13.90;11.50;;;;;;;39.45;25.29;93872.47;6178269;23;20021;-85
2021/07/14 07:20:24;;;;;;;13.20;11.13;;;;;;;39.37;25.25;93882.38;6172051;23;20495;-85
2021/07/14 07:22:49;;;;;;;19.15;11.50;;;;;;;39.02;25.75;93862.75;6173064;23;20656;-86
2021/07/14 07:25:15;;;;;;;17.23;10.88;;;;;;;39.11;25.96;93868.22;6182913;23;20107;-85
2021/07/14 07:27:42;;;;;;;15.63;11.30;;;;;;;39.56;26.01;93867.16;6171961;23;20036;-84
2021/07/14 07:30:09;;;;;;;12.05;10.45;;;;;;;39.69;25.56;93867.66;6171008;23;20021;-85
2021/07/14 07:32:35;;;;;;;15.60;11.75;;;;;;;40.50;24.36;93862.59;6173074;23;20016;-85
2021/07/14 07:35:00;;;;;;;14.10;10.18;;;;;;;40.46;24.22;93864.81;6146670;23;20059;-84
